Terminal Aerodrome Forecast
Issued by NWS

Home | Current Version | Previous Version | Text Only | Print | Product List | Glossary On
Versions: 1 2 3 4 5 6 7 8 9 10 11 12 13 14 15 16 17 18 19 20 21 22 23 24
000
FTUS41 KILN 212330
TAFLUK
TAF
KLUK 212330Z 2200/2224 02008KT P6SM -RA OVC012
     FM220200 03009KT 5SM SHRA OVC009
     FM220800 04010KT 3SM SHRA OVC007
     FM221400 04008KT 3SM -SHRA OVC007
     FM221800 05006KT P6SM OVC006
     FM222300 07005KT P6SM OVC015=

USA.gov is the U.S. government's official web portal to all federal, state and local government web resources and services.